Terminal Aerodrome Forecast
Issued by NWS Twin Cities, MN

Home | Current Version | Previous Version | Text Only | Print | Product List | Glossary On
Versions: 1 2 3 4 5 6 7 8 9 10 11 12 13 14 15 16 17 18
404
FTUS43 KMPX 151724
TAFEAU
TAF
KEAU 151724Z 1518/1618 20005KT P6SM FEW250
     FM160600 VRB02KT 5SM BR SCT250
     FM160900 VRB02KT 1 1/2SM BR FEW008 BKN250
     FM161500 11003KT 5SM HZ SCT015 BKN120=

USA.gov is the U.S. government's official web portal to all federal, state and local government web resources and services.